Alcova, WY

5:52 AM MDT on October 25, 2014 (GMT -0600)
Natrona County International | Change Station
CLOSE
Current Station
Airport
Location: Casper,
Elevation: 5289 ft
Nearby Weather Stations

Elev 5289 ft 42.90 °N, 106.47 °W | Updated 59 minutes ago

Clear
Clear
47 °F
Feels Like 47 °F
N
9
Wind Variable Wind from SSW

Today
High -- | Low -- °F
--% Chance of Precip.
Yesterday
High -- | Low -- °F
Precip. -- in
7:32 AM 6:10 PM
Waxing Crescent, 3% visible
Pressure 30.04 in
Visibility 10.0 miles
Clouds Clear
Dew Point 26 °F
Humidity 44%
Rainfall 0.00 in
Snow Depth Not available.
UV 0 out of 12
Pollen 2.50 out of 12
Air Quality Not available.
Flu Activity Sporadic
METAR KCPR 251053Z 21008KT 10SM CLR 08/M03 A3017 RMK AO2 SLP171 T00831033

More Conditions Fewer Conditions

Pressure 30.04 in
Visibility 10.0 miles
Clouds Clear
Dew Point 26 °F
Humidity 44%
Rainfall 0.00 in
Snow Depth Not available.
UV 0 out of 12
Pollen 2.50 out of 12
Air Quality Not available.
Flu Activity Sporadic
METAR KCPR 251053Z 21008KT 10SM CLR 08/M03 A3017 RMK AO2 SLP171 T00831033

More Conditions Fewer Conditions

10-Day Weather Forecast

Almanac

Astronomy

Oct. 25, 2014 Rise Set
Actual Time 7:32 AM MDT 6:10 PM MDT
Civil Twilight 7:03 AM MDT 6:38 PM MDT
Nautical Twilight 6:30 AM MDT 7:11 PM MDT
Astronomical Twilight 5:58 AM MDT 7:44 PM MDT
Moon 9:15 AM MDT 7:33 PM MDT
Length of Visible Light 11h 35m
Length of Day
10h 37m
Tomorrow will be 2m 40s shorter.
Waxing Crescent, 3% of the Moon is Illuminated
Today
Waxing Crescent
Oct 30
First Quarter
Nov 6
Full
Nov 14
Last Quarter
Nov 22
New

Today's Extremes

State Highs State Lows

Community

WunderPhotos

Upload Photos

1,764,812 photos uploaded!

Nearby

Snow Depth

Station Depth Elevation
Casper Mountain 0 in 7850 ft
Reno Hill 1 in 8500 ft
Laprele Creek 0 in 8375 ft
Windy Peak 0 in 7900 ft
Sage Creek Basin 0 in 7850 ft

Earthquake Activity

City Distance Mag. Time & Date
No recent earthquake activity has been reported nearby.
Minimum magnitude displayed is 2.5.

Coastal Water Temperatures

Place Temperature
No Stations Reporting

Nearby Weather Stations